sensor_id;sensor_type;location;lat;lon;timestamp;P1;durP1;ratioP1;P2;durP2;ratioP2
74227;SDS011;62587;52.352;5.006;2023-03-14T00:02:16;6.75;;;1.95;;
74227;SDS011;62587;52.352;5.006;2023-03-14T00:04:41;4.32;;;1.80;;
74227;SDS011;62587;52.352;5.006;2023-03-14T00:07:07;4.20;;;1.63;;
74227;SDS011;62587;52.352;5.006;2023-03-14T00:09:32;4.00;;;1.50;;
74227;SDS011;62587;52.352;5.006;2023-03-14T00:11:58;4.45;;;1.63;;
74227;SDS011;62587;52.352;5.006;2023-03-14T00:14:24;4.38;;;1.98;;
74227;SDS011;62587;52.352;5.006;2023-03-14T00:16:49;4.27;;;1.80;;
74227;SDS011;62587;52.352;5.006;2023-03-14T00:19:14;3.53;;;1.75;;
74227;SDS011;62587;52.352;5.006;2023-03-14T00:21:40;3.70;;;1.58;;
74227;SDS011;62587;52.352;5.006;2023-03-14T00:24:06;4.30;;;1.77;;
74227;SDS011;62587;52.352;5.006;2023-03-14T00:26:31;5.15;;;1.50;;
74227;SDS011;62587;52.352;5.006;2023-03-14T00:28:57;4.83;;;1.87;;
74227;SDS011;62587;52.352;5.006;2023-03-14T00:31:22;4.57;;;1.65;;
74227;SDS011;62587;52.352;5.006;2023-03-14T00:33:48;4.28;;;1.75;;
74227;SDS011;62587;52.352;5.006;2023-03-14T00:36:16;4.50;;;1.80;;
74227;SDS011;62587;52.352;5.006;2023-03-14T00:38:42;4.45;;;1.75;;
74227;SDS011;62587;52.352;5.006;2023-03-14T00:41:10;4.18;;;1.45;;
74227;SDS011;62587;52.352;5.006;2023-03-14T00:43:37;3.83;;;1.63;;
74227;SDS011;62587;52.352;5.006;2023-03-14T00:46:03;4.63;;;1.70;;
74227;SDS011;62587;52.352;5.006;2023-03-14T00:48:29;4.30;;;1.50;;
74227;SDS011;62587;52.352;5.006;2023-03-14T00:50:55;3.88;;;1.48;;
74227;SDS011;62587;52.352;5.006;2023-03-14T00:53:20;5.22;;;1.70;;
74227;SDS011;62587;52.352;5.006;2023-03-14T00:55:46;6.95;;;1.70;;
74227;SDS011;62587;52.352;5.006;2023-03-14T00:58:13;3.03;;;1.30;;
74227;SDS011;62587;52.352;5.006;2023-03-14T01:00:40;4.00;;;1.75;;
74227;SDS011;62587;52.352;5.006;2023-03-14T01:03:06;2.58;;;1.20;;
74227;SDS011;62587;52.352;5.006;2023-03-14T01:05:32;4.10;;;1.65;;
74227;SDS011;62587;52.352;5.006;2023-03-14T01:07:58;4.10;;;1.63;;
74227;SDS011;62587;52.352;5.006;2023-03-14T01:10:24;3.22;;;1.30;;
74227;SDS011;62587;52.352;5.006;2023-03-14T01:12:49;3.88;;;1.50;;
74227;SDS011;62587;52.352;5.006;2023-03-14T01:15:14;4.15;;;1.70;;
74227;SDS011;62587;52.352;5.006;2023-03-14T01:17:40;4.40;;;1.60;;
74227;SDS011;62587;52.352;5.006;2023-03-14T01:20:07;4.47;;;1.80;;
74227;SDS011;62587;52.352;5.006;2023-03-14T01:27:26;3.03;;;1.40;;
74227;SDS011;62587;52.352;5.006;2023-03-14T01:29:51;3.13;;;1.20;;
74227;SDS011;62587;52.352;5.006;2023-03-14T01:32:16;3.30;;;1.70;;
74227;SDS011;62587;52.352;5.006;2023-03-14T01:34:42;3.90;;;1.40;;
74227;SDS011;62587;52.352;5.006;2023-03-14T01:37:07;2.95;;;1.10;;
74227;SDS011;62587;52.352;5.006;2023-03-14T01:39:33;3.63;;;1.60;;
74227;SDS011;62587;52.352;5.006;2023-03-14T01:41:59;3.13;;;1.30;;
74227;SDS011;62587;52.352;5.006;2023-03-14T01:44:25;4.30;;;1.20;;
74227;SDS011;62587;52.352;5.006;2023-03-14T01:46:51;3.25;;;1.35;;
74227;SDS011;62587;52.352;5.006;2023-03-14T01:52:07;3.30;;;1.25;;
74227;SDS011;62587;52.352;5.006;2023-03-14T01:54:55;4.32;;;1.67;;
74227;SDS011;62587;52.352;5.006;2023-03-14T01:57:30;5.78;;;1.67;;
74227;SDS011;62587;52.352;5.006;2023-03-14T02:00:07;4.65;;;1.90;;
74227;SDS011;62587;52.352;5.006;2023-03-14T02:02:58;3.85;;;1.30;;
74227;SDS011;62587;52.352;5.006;2023-03-14T02:05:30;4.63;;;1.45;;
74227;SDS011;62587;52.352;5.006;2023-03-14T02:07:58;4.97;;;1.75;;
74227;SDS011;62587;52.352;5.006;2023-03-14T02:10:29;4.03;;;1.30;;
74227;SDS011;62587;52.352;5.006;2023-03-14T02:12:57;4.20;;;1.52;;
74227;SDS011;62587;52.352;5.006;2023-03-14T02:15:26;3.38;;;1.08;;
74227;SDS011;62587;52.352;5.006;2023-03-14T02:17:52;5.25;;;1.50;;
74227;SDS011;62587;52.352;5.006;2023-03-14T02:20:29;4.00;;;1.35;;
74227;SDS011;62587;52.352;5.006;2023-03-14T02:23:01;5.22;;;2.00;;
74227;SDS011;62587;52.352;5.006;2023-03-14T02:28:26;4.18;;;1.48;;
74227;SDS011;62587;52.352;5.006;2023-03-14T02:30:52;3.53;;;1.95;;
74227;SDS011;62587;52.352;5.006;2023-03-14T02:33:18;5.97;;;1.37;;
74227;SDS011;62587;52.352;5.006;2023-03-14T02:38:17;3.83;;;1.20;;
74227;SDS011;62587;52.352;5.006;2023-03-14T02:40:47;3.38;;;1.40;;
74227;SDS011;62587;52.352;5.006;2023-03-14T02:43:13;4.93;;;1.55;;
74227;SDS011;62587;52.352;5.006;2023-03-14T02:45:40;5.90;;;1.50;;
74227;SDS011;62587;52.352;5.006;2023-03-14T02:48:09;3.80;;;1.30;;
74227;SDS011;62587;52.352;5.006;2023-03-14T02:50:39;5.20;;;1.58;;
74227;SDS011;62587;52.352;5.006;2023-03-14T02:53:05;3.88;;;1.17;;
74227;SDS011;62587;52.352;5.006;2023-03-14T02:55:30;4.90;;;1.35;;
74227;SDS011;62587;52.352;5.006;2023-03-14T02:57:56;2.70;;;1.20;;
74227;SDS011;62587;52.352;5.006;2023-03-14T03:00:21;3.47;;;1.50;;
74227;SDS011;62587;52.352;5.006;2023-03-14T03:02:46;4.37;;;1.47;;
74227;SDS011;62587;52.352;5.006;2023-03-14T03:05:12;4.37;;;1.23;;
74227;SDS011;62587;52.352;5.006;2023-03-14T03:07:37;5.15;;;1.40;;
74227;SDS011;62587;52.352;5.006;2023-03-14T03:10:03;4.33;;;1.10;;
74227;SDS011;62587;52.352;5.006;2023-03-14T03:12:28;4.75;;;1.30;;
74227;SDS011;62587;52.352;5.006;2023-03-14T03:14:54;4.57;;;1.83;;
74227;SDS011;62587;52.352;5.006;2023-03-14T03:17:19;2.65;;;1.10;;
74227;SDS011;62587;52.352;5.006;2023-03-14T03:19:44;4.57;;;1.40;;
74227;SDS011;62587;52.352;5.006;2023-03-14T03:22:10;4.25;;;1.15;;
74227;SDS011;62587;52.352;5.006;2023-03-14T03:24:35;2.67;;;0.98;;
74227;SDS011;62587;52.352;5.006;2023-03-14T03:27:01;4.43;;;1.38;;
74227;SDS011;62587;52.352;5.006;2023-03-14T03:29:26;4.80;;;1.30;;
74227;SDS011;62587;52.352;5.006;2023-03-14T03:31:52;4.30;;;1.35;;
74227;SDS011;62587;52.352;5.006;2023-03-14T03:34:17;4.60;;;1.40;;
74227;SDS011;62587;52.352;5.006;2023-03-14T03:36:43;4.47;;;1.38;;
74227;SDS011;62587;52.352;5.006;2023-03-14T03:39:08;3.63;;;1.40;;
74227;SDS011;62587;52.352;5.006;2023-03-14T03:41:34;3.97;;;1.35;;
74227;SDS011;62587;52.352;5.006;2023-03-14T03:43:59;3.17;;;1.10;;
74227;SDS011;62587;52.352;5.006;2023-03-14T03:46:24;2.85;;;1.00;;
74227;SDS011;62587;52.352;5.006;2023-03-14T03:48:56;3.38;;;1.20;;
74227;SDS011;62587;52.352;5.006;2023-03-14T03:51:23;4.20;;;1.50;;
74227;SDS011;62587;52.352;5.006;2023-03-14T03:53:49;4.53;;;1.33;;
74227;SDS011;62587;52.352;5.006;2023-03-14T03:56:14;3.65;;;1.27;;
74227;SDS011;62587;52.352;5.006;2023-03-14T03:58:40;4.35;;;1.67;;
74227;SDS011;62587;52.352;5.006;2023-03-14T04:01:07;3.30;;;1.23;;
74227;SDS011;62587;52.352;5.006;2023-03-14T04:03:33;3.90;;;1.50;;
74227;SDS011;62587;52.352;5.006;2023-03-14T04:06:00;4.00;;;1.27;;
74227;SDS011;62587;52.352;5.006;2023-03-14T04:08:27;2.88;;;1.42;;
74227;SDS011;62587;52.352;5.006;2023-03-14T04:10:56;4.30;;;1.42;;
74227;SDS011;62587;52.352;5.006;2023-03-14T04:13:22;4.75;;;1.52;;
74227;SDS011;62587;52.352;5.006;2023-03-14T04:15:48;2.63;;;1.00;;
74227;SDS011;62587;52.352;5.006;2023-03-14T04:18:14;5.07;;;2.08;;
74227;SDS011;62587;52.352;5.006;2023-03-14T04:20:39;4.43;;;1.33;;
74227;SDS011;62587;52.352;5.006;2023-03-14T04:23:05;4.10;;;1.40;;
74227;SDS011;62587;52.352;5.006;2023-03-14T04:25:30;3.37;;;1.10;;
74227;SDS011;62587;52.352;5.006;2023-03-14T04:27:55;4.45;;;1.17;;
74227;SDS011;62587;52.352;5.006;2023-03-14T04:30:21;2.88;;;1.08;;
74227;SDS011;62587;52.352;5.006;2023-03-14T04:32:47;5.03;;;1.77;;
74227;SDS011;62587;52.352;5.006;2023-03-14T04:35:12;3.08;;;1.40;;
74227;SDS011;62587;52.352;5.006;2023-03-14T04:37:37;2.72;;;1.17;;
74227;SDS011;62587;52.352;5.006;2023-03-14T04:40:03;4.40;;;1.20;;
74227;SDS011;62587;52.352;5.006;2023-03-14T04:42:31;4.38;;;1.75;;
74227;SDS011;62587;52.352;5.006;2023-03-14T04:44:56;3.45;;;1.25;;
74227;SDS011;62587;52.352;5.006;2023-03-14T04:47:22;3.22;;;1.48;;
74227;SDS011;62587;52.352;5.006;2023-03-14T04:49:47;2.97;;;1.40;;
74227;SDS011;62587;52.352;5.006;2023-03-14T04:52:12;3.38;;;1.42;;
74227;SDS011;62587;52.352;5.006;2023-03-14T04:54:38;4.17;;;1.50;;
74227;SDS011;62587;52.352;5.006;2023-03-14T04:57:03;3.72;;;1.25;;
74227;SDS011;62587;52.352;5.006;2023-03-14T04:59:28;3.13;;;1.25;;
74227;SDS011;62587;52.352;5.006;2023-03-14T05:01:53;3.30;;;1.50;;
74227;SDS011;62587;52.352;5.006;2023-03-14T05:04:19;3.83;;;2.00;;
74227;SDS011;62587;52.352;5.006;2023-03-14T05:06:44;4.30;;;1.47;;
74227;SDS011;62587;52.352;5.006;2023-03-14T05:09:10;3.65;;;1.20;;
74227;SDS011;62587;52.352;5.006;2023-03-14T05:11:35;3.30;;;1.45;;
74227;SDS011;62587;52.352;5.006;2023-03-14T05:14:00;2.55;;;1.33;;
74227;SDS011;62587;52.352;5.006;2023-03-14T05:16:26;3.70;;;1.23;;
74227;SDS011;62587;52.352;5.006;2023-03-14T05:18:51;3.40;;;1.20;;
74227;SDS011;62587;52.352;5.006;2023-03-14T05:21:16;4.72;;;1.67;;
74227;SDS011;62587;52.352;5.006;2023-03-14T05:23:42;3.93;;;1.20;;
74227;SDS011;62587;52.352;5.006;2023-03-14T05:26:07;2.83;;;1.00;;
74227;SDS011;62587;52.352;5.006;2023-03-14T05:28:32;5.00;;;1.75;;
74227;SDS011;62587;52.352;5.006;2023-03-14T05:30:58;4.32;;;1.45;;
74227;SDS011;62587;52.352;5.006;2023-03-14T05:33:23;4.80;;;1.38;;
74227;SDS011;62587;52.352;5.006;2023-03-14T05:35:48;3.33;;;1.10;;
74227;SDS011;62587;52.352;5.006;2023-03-14T05:38:14;2.87;;;1.47;;
74227;SDS011;62587;52.352;5.006;2023-03-14T05:40:39;3.08;;;1.35;;
74227;SDS011;62587;52.352;5.006;2023-03-14T05:43:05;3.40;;;1.10;;
74227;SDS011;62587;52.352;5.006;2023-03-14T05:45:32;3.05;;;1.20;;
74227;SDS011;62587;52.352;5.006;2023-03-14T05:47:58;3.10;;;1.38;;
74227;SDS011;62587;52.352;5.006;2023-03-14T05:50:23;2.83;;;1.20;;
74227;SDS011;62587;52.352;5.006;2023-03-14T05:52:49;3.72;;;1.60;;
74227;SDS011;62587;52.352;5.006;2023-03-14T05:55:14;5.63;;;1.40;;
74227;SDS011;62587;52.352;5.006;2023-03-14T05:57:39;3.33;;;0.97;;
74227;SDS011;62587;52.352;5.006;2023-03-14T06:00:05;2.73;;;1.10;;
74227;SDS011;62587;52.352;5.006;2023-03-14T06:02:31;2.55;;;1.20;;
74227;SDS011;62587;52.352;5.006;2023-03-14T06:04:56;3.35;;;1.00;;
74227;SDS011;62587;52.352;5.006;2023-03-14T06:07:21;3.23;;;1.07;;
74227;SDS011;62587;52.352;5.006;2023-03-14T06:09:47;2.47;;;1.10;;
74227;SDS011;62587;52.352;5.006;2023-03-14T06:12:12;2.73;;;1.20;;
74227;SDS011;62587;52.352;5.006;2023-03-14T06:14:37;2.87;;;1.27;;
74227;SDS011;62587;52.352;5.006;2023-03-14T06:17:03;3.63;;;1.30;;
74227;SDS011;62587;52.352;5.006;2023-03-14T06:19:28;3.95;;;1.35;;
74227;SDS011;62587;52.352;5.006;2023-03-14T06:21:53;2.50;;;1.20;;
74227;SDS011;62587;52.352;5.006;2023-03-14T06:24:19;3.10;;;1.20;;
74227;SDS011;62587;52.352;5.006;2023-03-14T06:26:44;2.50;;;0.90;;
74227;SDS011;62587;52.352;5.006;2023-03-14T06:29:09;3.23;;;1.13;;
74227;SDS011;62587;52.352;5.006;2023-03-14T06:31:35;3.08;;;1.17;;
74227;SDS011;62587;52.352;5.006;2023-03-14T06:34:00;2.10;;;1.10;;
74227;SDS011;62587;52.352;5.006;2023-03-14T06:36:26;2.72;;;0.82;;
74227;SDS011;62587;52.352;5.006;2023-03-14T06:38:51;1.95;;;0.98;;
74227;SDS011;62587;52.352;5.006;2023-03-14T06:41:17;3.03;;;1.05;;
74227;SDS011;62587;52.352;5.006;2023-03-14T06:43:42;2.90;;;1.00;;
74227;SDS011;62587;52.352;5.006;2023-03-14T06:46:08;1.60;;;0.65;;
74227;SDS011;62587;52.352;5.006;2023-03-14T06:48:33;2.15;;;0.90;;
74227;SDS011;62587;52.352;5.006;2023-03-14T06:50:59;1.73;;;0.77;;
74227;SDS011;62587;52.352;5.006;2023-03-14T06:53:24;2.20;;;0.73;;
74227;SDS011;62587;52.352;5.006;2023-03-14T06:55:49;2.30;;;0.82;;
74227;SDS011;62587;52.352;5.006;2023-03-14T06:58:15;1.95;;;0.73;;
74227;SDS011;62587;52.352;5.006;2023-03-14T07:00:40;2.07;;;0.80;;
74227;SDS011;62587;52.352;5.006;2023-03-14T07:03:06;2.22;;;0.98;;
74227;SDS011;62587;52.352;5.006;2023-03-14T07:05:31;2.53;;;0.93;;
74227;SDS011;62587;52.352;5.006;2023-03-14T07:07:56;2.33;;;0.77;;
74227;SDS011;62587;52.352;5.006;2023-03-14T07:10:22;2.60;;;0.82;;
74227;SDS011;62587;52.352;5.006;2023-03-14T07:12:47;1.90;;;0.80;;
74227;SDS011;62587;52.352;5.006;2023-03-14T07:15:13;1.95;;;0.80;;
74227;SDS011;62587;52.352;5.006;2023-03-14T07:17:38;2.35;;;0.77;;
74227;SDS011;62587;52.352;5.006;2023-03-14T07:20:04;2.87;;;1.20;;
74227;SDS011;62587;52.352;5.006;2023-03-14T07:22:30;2.45;;;1.17;;
74227;SDS011;62587;52.352;5.006;2023-03-14T07:24:55;2.28;;;0.93;;
74227;SDS011;62587;52.352;5.006;2023-03-14T07:27:21;2.80;;;0.60;;
74227;SDS011;62587;52.352;5.006;2023-03-14T07:29:46;3.25;;;0.60;;
74227;SDS011;62587;52.352;5.006;2023-03-14T07:32:11;5.20;;;1.10;;
74227;SDS011;62587;52.352;5.006;2023-03-14T07:34:40;1.70;;;0.70;;
74227;SDS011;62587;52.352;5.006;2023-03-14T07:37:06;5.57;;;0.90;;
74227;SDS011;62587;52.352;5.006;2023-03-14T07:39:31;1.88;;;0.90;;
74227;SDS011;62587;52.352;5.006;2023-03-14T07:41:56;2.20;;;0.88;;
74227;SDS011;62587;52.352;5.006;2023-03-14T07:44:22;5.82;;;1.35;;
74227;SDS011;62587;52.352;5.006;2023-03-14T07:46:47;4.17;;;1.30;;
74227;SDS011;62587;52.352;5.006;2023-03-14T07:49:12;5.32;;;0.90;;
74227;SDS011;62587;52.352;5.006;2023-03-14T07:51:38;5.35;;;1.05;;
74227;SDS011;62587;52.352;5.006;2023-03-14T07:54:03;3.15;;;1.10;;
74227;SDS011;62587;52.352;5.006;2023-03-14T07:56:28;8.98;;;1.15;;
74227;SDS011;62587;52.352;5.006;2023-03-14T07:58:54;3.08;;;0.93;;
74227;SDS011;62587;52.352;5.006;2023-03-14T08:01:19;2.63;;;0.93;;
74227;SDS011;62587;52.352;5.006;2023-03-14T08:03:44;2.97;;;1.17;;
74227;SDS011;62587;52.352;5.006;2023-03-14T08:06:10;3.05;;;0.82;;
74227;SDS011;62587;52.352;5.006;2023-03-14T08:08:35;3.90;;;1.20;;
74227;SDS011;62587;52.352;5.006;2023-03-14T08:11:04;5.65;;;1.00;;
74227;SDS011;62587;52.352;5.006;2023-03-14T08:13:30;2.28;;;0.90;;
74227;SDS011;62587;52.352;5.006;2023-03-14T08:15:56;4.00;;;1.25;;
74227;SDS011;62587;52.352;5.006;2023-03-14T08:18:21;5.33;;;0.97;;
74227;SDS011;62587;52.352;5.006;2023-03-14T08:20:47;2.78;;;1.00;;
74227;SDS011;62587;52.352;5.006;2023-03-14T08:23:12;4.47;;;1.23;;
74227;SDS011;62587;52.352;5.006;2023-03-14T08:25:37;4.38;;;0.90;;
74227;SDS011;62587;52.352;5.006;2023-03-14T08:28:04;2.17;;;0.70;;
74227;SDS011;62587;52.352;5.006;2023-03-14T08:30:29;5.57;;;1.02;;
74227;SDS011;62587;52.352;5.006;2023-03-14T08:32:57;3.80;;;1.08;;
74227;SDS011;62587;52.352;5.006;2023-03-14T08:35:23;2.83;;;0.98;;
74227;SDS011;62587;52.352;5.006;2023-03-14T08:37:50;2.45;;;0.77;;
74227;SDS011;62587;52.352;5.006;2023-03-14T08:40:17;1.92;;;0.80;;
74227;SDS011;62587;52.352;5.006;2023-03-14T08:42:43;4.82;;;1.30;;
74227;SDS011;62587;52.352;5.006;2023-03-14T08:45:10;2.42;;;0.70;;
74227;SDS011;62587;52.352;5.006;2023-03-14T08:47:37;2.88;;;1.00;;
74227;SDS011;62587;52.352;5.006;2023-03-14T08:50:03;3.22;;;0.85;;
74227;SDS011;62587;52.352;5.006;2023-03-14T08:52:29;2.80;;;1.20;;
74227;SDS011;62587;52.352;5.006;2023-03-14T08:54:55;2.17;;;1.00;;
74227;SDS011;62587;52.352;5.006;2023-03-14T08:57:21;2.20;;;0.75;;
74227;SDS011;62587;52.352;5.006;2023-03-14T08:59:47;2.30;;;0.65;;
74227;SDS011;62587;52.352;5.006;2023-03-14T09:02:12;3.33;;;1.02;;
74227;SDS011;62587;52.352;5.006;2023-03-14T09:04:38;3.58;;;0.98;;
74227;SDS011;62587;52.352;5.006;2023-03-14T09:07:03;2.72;;;0.88;;
74227;SDS011;62587;52.352;5.006;2023-03-14T09:09:29;3.10;;;0.73;;
74227;SDS011;62587;52.352;5.006;2023-03-14T09:11:55;4.45;;;0.82;;
74227;SDS011;62587;52.352;5.006;2023-03-14T09:14:21;2.83;;;0.85;;
74227;SDS011;62587;52.352;5.006;2023-03-14T09:16:46;2.38;;;0.90;;
74227;SDS011;62587;52.352;5.006;2023-03-14T09:19:12;3.45;;;1.05;;
74227;SDS011;62587;52.352;5.006;2023-03-14T09:21:37;2.90;;;0.75;;
74227;SDS011;62587;52.352;5.006;2023-03-14T09:24:04;5.25;;;0.70;;
74227;SDS011;62587;52.352;5.006;2023-03-14T09:26:30;2.75;;;0.70;;
74227;SDS011;62587;52.352;5.006;2023-03-14T09:28:55;2.40;;;0.80;;
74227;SDS011;62587;52.352;5.006;2023-03-14T09:31:20;2.05;;;0.88;;
74227;SDS011;62587;52.352;5.006;2023-03-14T09:33:47;2.67;;;0.70;;
74227;SDS011;62587;52.352;5.006;2023-03-14T09:36:13;3.60;;;1.13;;
74227;SDS011;62587;52.352;5.006;2023-03-14T09:38:38;2.72;;;0.70;;
74227;SDS011;62587;52.352;5.006;2023-03-14T09:41:10;3.33;;;0.87;;
74227;SDS011;62587;52.352;5.006;2023-03-14T09:43:49;3.88;;;1.25;;
74227;SDS011;62587;52.352;5.006;2023-03-14T09:46:20;2.53;;;1.10;;
74227;SDS011;62587;52.352;5.006;2023-03-14T09:48:46;2.50;;;0.63;;
74227;SDS011;62587;52.352;5.006;2023-03-14T09:51:16;1.67;;;0.60;;
74227;SDS011;62587;52.352;5.006;2023-03-14T09:53:43;2.47;;;0.90;;
74227;SDS011;62587;52.352;5.006;2023-03-14T09:56:29;3.00;;;0.82;;
74227;SDS011;62587;52.352;5.006;2023-03-14T09:59:01;2.55;;;0.82;;
74227;SDS011;62587;52.352;5.006;2023-03-14T10:01:31;2.83;;;0.70;;
74227;SDS011;62587;52.352;5.006;2023-03-14T10:04:02;3.95;;;1.10;;
74227;SDS011;62587;52.352;5.006;2023-03-14T10:06:31;1.98;;;0.88;;
74227;SDS011;62587;52.352;5.006;2023-03-14T10:08:57;2.80;;;0.80;;
74227;SDS011;62587;52.352;5.006;2023-03-14T10:11:23;3.40;;;0.80;;
74227;SDS011;62587;52.352;5.006;2023-03-14T10:13:50;2.90;;;0.90;;
74227;SDS011;62587;52.352;5.006;2023-03-14T10:16:41;2.42;;;0.73;;
74227;SDS011;62587;52.352;5.006;2023-03-14T10:19:17;2.28;;;0.90;;
74227;SDS011;62587;52.352;5.006;2023-03-14T10:21:43;3.55;;;1.08;;
74227;SDS011;62587;52.352;5.006;2023-03-14T10:26:54;3.08;;;0.77;;
74227;SDS011;62587;52.352;5.006;2023-03-14T10:29:32;3.03;;;0.85;;
74227;SDS011;62587;52.352;5.006;2023-03-14T10:34:29;4.25;;;1.17;;
74227;SDS011;62587;52.352;5.006;2023-03-14T10:36:59;2.53;;;0.90;;
74227;SDS011;62587;52.352;5.006;2023-03-14T10:45:03;3.90;;;1.00;;
74227;SDS011;62587;52.352;5.006;2023-03-14T10:47:33;2.55;;;1.00;;
74227;SDS011;62587;52.352;5.006;2023-03-14T10:50:32;2.33;;;0.90;;
74227;SDS011;62587;52.352;5.006;2023-03-14T10:52:52;3.13;;;1.10;;
74227;SDS011;62587;52.352;5.006;2023-03-14T10:55:18;3.38;;;0.93;;
74227;SDS011;62587;52.352;5.006;2023-03-14T10:57:43;4.13;;;1.10;;
74227;SDS011;62587;52.352;5.006;2023-03-14T11:00:20;2.45;;;0.90;;
74227;SDS011;62587;52.352;5.006;2023-03-14T11:08:07;2.28;;;0.80;;
74227;SDS011;62587;52.352;5.006;2023-03-14T11:10:39;2.78;;;0.85;;
74227;SDS011;62587;52.352;5.006;2023-03-14T11:21:02;2.47;;;0.85;;
74227;SDS011;62587;52.352;5.006;2023-03-14T11:28:57;3.00;;;0.90;;
74227;SDS011;62587;52.352;5.006;2023-03-14T11:31:28;3.17;;;1.05;;
74227;SDS011;62587;52.352;5.006;2023-03-14T11:36:31;2.58;;;0.98;;
74227;SDS011;62587;52.352;5.006;2023-03-14T11:39:03;2.47;;;0.75;;
74227;SDS011;62587;52.352;5.006;2023-03-14T11:41:40;3.38;;;0.88;;
74227;SDS011;62587;52.352;5.006;2023-03-14T11:44:27;2.72;;;0.80;;
74227;SDS011;62587;52.352;5.006;2023-03-14T11:49:56;3.92;;;1.17;;
74227;SDS011;62587;52.352;5.006;2023-03-14T11:52:30;2.70;;;0.85;;
74227;SDS011;62587;52.352;5.006;2023-03-14T11:55:05;2.15;;;0.60;;
74227;SDS011;62587;52.352;5.006;2023-03-14T11:57:37;3.70;;;0.95;;
74227;SDS011;62587;52.352;5.006;2023-03-14T12:00:23;2.78;;;0.93;;
74227;SDS011;62587;52.352;5.006;2023-03-14T12:08:30;2.45;;;0.90;;
74227;SDS011;62587;52.352;5.006;2023-03-14T12:13:41;2.42;;;0.77;;
74227;SDS011;62587;52.352;5.006;2023-03-14T12:16:55;2.80;;;0.90;;
74227;SDS011;62587;52.352;5.006;2023-03-14T12:21:51;2.03;;;0.63;;
74227;SDS011;62587;52.352;5.006;2023-03-14T12:24:21;2.90;;;1.00;;
74227;SDS011;62587;52.352;5.006;2023-03-14T12:26:54;2.88;;;0.90;;
74227;SDS011;62587;52.352;5.006;2023-03-14T12:29:21;2.40;;;0.82;;
74227;SDS011;62587;52.352;5.006;2023-03-14T12:31:47;2.72;;;1.00;;
74227;SDS011;62587;52.352;5.006;2023-03-14T12:51:01;2.17;;;0.82;;
74227;SDS011;62587;52.352;5.006;2023-03-14T13:01:30;2.58;;;0.70;;
74227;SDS011;62587;52.352;5.006;2023-03-14T13:04:02;3.50;;;0.90;;
74227;SDS011;62587;52.352;5.006;2023-03-14T13:10:16;2.35;;;0.80;;
74227;SDS011;62587;52.352;5.006;2023-03-14T13:14:44;2.50;;;0.95;;
74227;SDS011;62587;52.352;5.006;2023-03-14T13:17:12;1.63;;;0.65;;
74227;SDS011;62587;52.352;5.006;2023-03-14T13:19:39;3.25;;;0.80;;
74227;SDS011;62587;52.352;5.006;2023-03-14T13:22:05;2.20;;;0.70;;
74227;SDS011;62587;52.352;5.006;2023-03-14T13:24:40;2.25;;;0.80;;
74227;SDS011;62587;52.352;5.006;2023-03-14T13:27:08;2.50;;;0.65;;
74227;SDS011;62587;52.352;5.006;2023-03-14T13:29:49;2.38;;;0.80;;
74227;SDS011;62587;52.352;5.006;2023-03-14T13:32:28;2.95;;;0.80;;
74227;SDS011;62587;52.352;5.006;2023-03-14T13:34:57;2.92;;;0.80;;
74227;SDS011;62587;52.352;5.006;2023-03-14T13:37:24;2.15;;;0.70;;
74227;SDS011;62587;52.352;5.006;2023-03-14T13:39:52;2.88;;;0.80;;
74227;SDS011;62587;52.352;5.006;2023-03-14T13:42:20;2.92;;;0.90;;
74227;SDS011;62587;52.352;5.006;2023-03-14T13:44:49;2.35;;;0.82;;
74227;SDS011;62587;52.352;5.006;2023-03-14T13:47:18;2.47;;;0.88;;
74227;SDS011;62587;52.352;5.006;2023-03-14T13:49:45;2.90;;;0.80;;
74227;SDS011;62587;52.352;5.006;2023-03-14T13:55:17;3.75;;;1.05;;
74227;SDS011;62587;52.352;5.006;2023-03-14T13:57:53;2.55;;;0.80;;
74227;SDS011;62587;52.352;5.006;2023-03-14T14:00:23;2.78;;;0.80;;
74227;SDS011;62587;52.352;5.006;2023-03-14T14:02:54;1.77;;;0.73;;
74227;SDS011;62587;52.352;5.006;2023-03-14T14:05:22;3.60;;;0.70;;
74227;SDS011;62587;52.352;5.006;2023-03-14T14:07:51;2.25;;;1.00;;
74227;SDS011;62587;52.352;5.006;2023-03-14T14:10:17;3.72;;;1.10;;
74227;SDS011;62587;52.352;5.006;2023-03-14T14:12:47;1.90;;;0.63;;
74227;SDS011;62587;52.352;5.006;2023-03-14T14:15:16;2.60;;;0.80;;
74227;SDS011;62587;52.352;5.006;2023-03-14T14:17:53;1.67;;;0.50;;
74227;SDS011;62587;52.352;5.006;2023-03-14T14:20:38;3.30;;;0.70;;
74227;SDS011;62587;52.352;5.006;2023-03-14T14:23:12;3.08;;;0.80;;
74227;SDS011;62587;52.352;5.006;2023-03-14T14:25:42;2.88;;;0.70;;
74227;SDS011;62587;52.352;5.006;2023-03-14T14:28:17;1.13;;;0.80;;
74227;SDS011;62587;52.352;5.006;2023-03-14T14:30:58;2.25;;;0.85;;
74227;SDS011;62587;52.352;5.006;2023-03-14T14:33:25;2.50;;;1.05;;
74227;SDS011;62587;52.352;5.006;2023-03-14T14:35:57;3.05;;;0.85;;
74227;SDS011;62587;52.352;5.006;2023-03-14T14:38:25;1.70;;;0.70;;
74227;SDS011;62587;52.352;5.006;2023-03-14T14:40:53;2.35;;;0.98;;
74227;SDS011;62587;52.352;5.006;2023-03-14T14:43:21;2.17;;;0.77;;
74227;SDS011;62587;52.352;5.006;2023-03-14T14:48:18;2.60;;;0.63;;
74227;SDS011;62587;52.352;5.006;2023-03-14T14:53:31;2.30;;;0.50;;
74227;SDS011;62587;52.352;5.006;2023-03-14T14:56:06;1.92;;;0.70;;
74227;SDS011;62587;52.352;5.006;2023-03-14T14:58:40;2.03;;;0.52;;
74227;SDS011;62587;52.352;5.006;2023-03-14T15:01:11;2.67;;;0.93;;
74227;SDS011;62587;52.352;5.006;2023-03-14T15:03:41;2.13;;;0.90;;
74227;SDS011;62587;52.352;5.006;2023-03-14T15:08:35;2.85;;;0.95;;
74227;SDS011;62587;52.352;5.006;2023-03-14T15:11:02;1.75;;;0.70;;
74227;SDS011;62587;52.352;5.006;2023-03-14T15:13:27;1.77;;;0.57;;
74227;SDS011;62587;52.352;5.006;2023-03-14T15:15:53;2.53;;;0.70;;
74227;SDS011;62587;52.352;5.006;2023-03-14T15:18:20;2.45;;;0.60;;
74227;SDS011;62587;52.352;5.006;2023-03-14T15:20:47;1.90;;;0.80;;
74227;SDS011;62587;52.352;5.006;2023-03-14T15:23:14;1.80;;;0.80;;
74227;SDS011;62587;52.352;5.006;2023-03-14T15:25:40;3.10;;;0.77;;
74227;SDS011;62587;52.352;5.006;2023-03-14T15:28:14;2.13;;;0.57;;
74227;SDS011;62587;52.352;5.006;2023-03-14T15:30:42;2.78;;;0.85;;
74227;SDS011;62587;52.352;5.006;2023-03-14T15:33:07;2.35;;;0.82;;
74227;SDS011;62587;52.352;5.006;2023-03-14T15:35:34;2.55;;;0.70;;
74227;SDS011;62587;52.352;5.006;2023-03-14T15:38:01;2.10;;;0.80;;
74227;SDS011;62587;52.352;5.006;2023-03-14T15:40:26;2.67;;;0.70;;
74227;SDS011;62587;52.352;5.006;2023-03-14T15:42:52;1.85;;;0.55;;
74227;SDS011;62587;52.352;5.006;2023-03-14T15:45:17;2.70;;;0.63;;
74227;SDS011;62587;52.352;5.006;2023-03-14T15:47:42;2.77;;;0.80;;
74227;SDS011;62587;52.352;5.006;2023-03-14T15:50:09;2.30;;;0.70;;
74227;SDS011;62587;52.352;5.006;2023-03-14T15:52:35;2.58;;;0.70;;
74227;SDS011;62587;52.352;5.006;2023-03-14T15:55:00;2.20;;;0.60;;
74227;SDS011;62587;52.352;5.006;2023-03-14T15:57:26;1.42;;;0.60;;
74227;SDS011;62587;52.352;5.006;2023-03-14T15:59:51;2.72;;;0.60;;
74227;SDS011;62587;52.352;5.006;2023-03-14T16:02:17;2.10;;;0.50;;
74227;SDS011;62587;52.352;5.006;2023-03-14T16:04:42;1.43;;;0.60;;
74227;SDS011;62587;52.352;5.006;2023-03-14T16:07:08;2.50;;;0.85;;
74227;SDS011;62587;52.352;5.006;2023-03-14T16:09:34;2.60;;;0.70;;
74227;SDS011;62587;52.352;5.006;2023-03-14T16:11:59;3.10;;;0.70;;
74227;SDS011;62587;52.352;5.006;2023-03-14T16:14:24;2.28;;;0.70;;
74227;SDS011;62587;52.352;5.006;2023-03-14T16:16:51;2.13;;;0.70;;
74227;SDS011;62587;52.352;5.006;2023-03-14T16:19:17;3.10;;;0.75;;
74227;SDS011;62587;52.352;5.006;2023-03-14T16:21:42;1.85;;;0.60;;
74227;SDS011;62587;52.352;5.006;2023-03-14T16:24:07;2.30;;;0.70;;
74227;SDS011;62587;52.352;5.006;2023-03-14T16:26:33;1.95;;;0.75;;
74227;SDS011;62587;52.352;5.006;2023-03-14T16:29:01;3.47;;;0.80;;
74227;SDS011;62587;52.352;5.006;2023-03-14T16:31:27;1.92;;;0.70;;